Port Saint Lucie, FL

10:41 PM EST on March 01, 2015 (GMT -0500)
Just South of St. Lucie West...hometownweather.net | Change Station
CLOSE
Current Station
Personal Weather Station
Location: Port St. Lucie, FL
Elevation: 10 ft
Nearby Weather Stations

Elev 10 ft 27.29 °N, 80.39 °W | Updated 6 seconds ago

Clear
Clear
68.9 °F
Feels Like 68.9 °F
N
0.0
Wind Variable Wind from ENE
Gusts 0.0 mph

Today
High -- | Low -- °F
--% Chance of Precip.
Yesterday
High -- | Low -- °F
Precip. -- in
6:45 AM 6:22 PM
Waxing Gibbous, 89% visible
Pressure 30.32 in
Visibility 10.0 miles
Clouds Clear
Dew Point 64 °F
Humidity 84%
Rainfall 0.04 in
Snow Depth Not available.
UV 0 out of 12
Pollen 10.50 out of 12
Air Quality Not available.
Flu Activity Not available.
METAR KSUA 020335Z AUTO 10005KT 10SM CLR 21/20 A3032 RMK AO2

More Conditions Fewer Conditions

Pressure 30.32 in
Visibility 10.0 miles
Clouds Clear
Dew Point 64 °F
Humidity 84%
Rainfall 0.04 in
Snow Depth Not available.
UV 0 out of 12
Pollen 10.50 out of 12
Air Quality Not available.
Flu Activity Not available.
METAR KSUA 020335Z AUTO 10005KT 10SM CLR 21/20 A3032 RMK AO2

More Conditions Fewer Conditions

Nowcast | as of 10:06 PM EST on March 1, 2015

Fog continues to spread inland across Volusia County this evening...now reaching into Seminole...northern Brevard...and Eastern Lake counties. Widespread visibilities in this area are around 1 to 2 miles...with local visibilities down to 1/4 mile or less especially along the fog bank's leading edge. This fog bank will continue to spread south and west into the remainder of the Orlando Metro through the late evening and overnight hours. Conditions will be favorable for fog development across the remainder of east central Florida as well. Locally dense conditions will be possible overnight...and especially around daybreak Monday morning. Visibilities may drop to several hundred feet in some locations at times. Fog...especially as it begins to set in...will cause rapid visibilities changes within a short distance making driving hazardous. If you're out driving tonight...slow down...use your low beam headlights and be sure to leave plenty of distance between you and the car in front of you. Additional details...including graphics are available online at: http://www.Srh.NOAA.Gov/mlb/blog.Php

×

10-Day Weather Forecast

Almanac

Astronomy

Mar. 01, 2015 Rise Set
Actual Time
Civil Twilight
Nautical Twilight
Astronomical Twilight
Moon
Length of Visible Light
Length of Day
Tomorrow will be .
, % of the Moon is Illuminated

Today's Extremes

State Highs State Lows

Community

WunderPhotos

Upload Photos

1,801,719 photos uploaded!

WunderBlogs® & News

Nearby

Air Quality

  Air Quality AQ Index Pollutant
Not available.

Snow Depth

Station Depth Elevation

Earthquake Activity

City Distance Mag. Time & Date
Minimum magnitude displayed is 2.5.

Coastal Water Temperatures

Place Temperature

Nearby Weather Stations